sensor_id;sensor_type;location;lat;lon;timestamp;P1;durP1;ratioP1;P2;durP2;ratioP2
57635;SDS011;43465;50.728;4.160;2023-09-12T00:00:54;42.38;;;32.47;;
57635;SDS011;43465;50.728;4.160;2023-09-12T00:03:22;46.65;;;34.83;;
57635;SDS011;43465;50.728;4.160;2023-09-12T00:05:54;38.50;;;29.20;;
57635;SDS011;43465;50.728;4.160;2023-09-12T00:08:21;42.30;;;31.48;;
57635;SDS011;43465;50.728;4.160;2023-09-12T00:13:25;42.88;;;32.85;;
57635;SDS011;43465;50.728;4.160;2023-09-12T00:15:51;39.47;;;30.00;;
57635;SDS011;43465;50.728;4.160;2023-09-12T00:18:16;35.63;;;29.60;;
57635;SDS011;43465;50.728;4.160;2023-09-12T00:20:42;48.50;;;36.28;;
57635;SDS011;43465;50.728;4.160;2023-09-12T00:23:08;50.60;;;35.40;;
57635;SDS011;43465;50.728;4.160;2023-09-12T00:25:33;46.97;;;33.90;;
57635;SDS011;43465;50.728;4.160;2023-09-12T00:27:59;40.13;;;32.17;;
57635;SDS011;43465;50.728;4.160;2023-09-12T00:30:24;40.85;;;33.42;;
57635;SDS011;43465;50.728;4.160;2023-09-12T00:32:50;38.63;;;30.48;;
57635;SDS011;43465;50.728;4.160;2023-09-12T00:35:16;35.70;;;29.30;;
57635;SDS011;43465;50.728;4.160;2023-09-12T00:37:41;43.25;;;31.73;;
57635;SDS011;43465;50.728;4.160;2023-09-12T00:40:07;37.17;;;29.67;;
57635;SDS011;43465;50.728;4.160;2023-09-12T00:42:33;41.08;;;31.27;;
57635;SDS011;43465;50.728;4.160;2023-09-12T00:44:58;38.63;;;29.80;;
57635;SDS011;43465;50.728;4.160;2023-09-12T00:47:24;41.67;;;30.42;;
57635;SDS011;43465;50.728;4.160;2023-09-12T00:49:52;40.35;;;31.15;;
57635;SDS011;43465;50.728;4.160;2023-09-12T00:52:18;41.50;;;30.50;;
57635;SDS011;43465;50.728;4.160;2023-09-12T00:54:45;41.47;;;31.88;;
57635;SDS011;43465;50.728;4.160;2023-09-12T00:57:11;38.72;;;30.40;;
57635;SDS011;43465;50.728;4.160;2023-09-12T00:59:37;40.55;;;29.35;;
57635;SDS011;43465;50.728;4.160;2023-09-12T01:02:02;43.42;;;30.55;;
57635;SDS011;43465;50.728;4.160;2023-09-12T01:04:28;40.55;;;30.77;;
57635;SDS011;43465;50.728;4.160;2023-09-12T01:06:54;38.97;;;29.67;;
57635;SDS011;43465;50.728;4.160;2023-09-12T01:09:20;37.83;;;29.98;;
57635;SDS011;43465;50.728;4.160;2023-09-12T01:11:46;39.40;;;29.95;;
57635;SDS011;43465;50.728;4.160;2023-09-12T01:14:12;39.95;;;29.42;;
57635;SDS011;43465;50.728;4.160;2023-09-12T01:16:37;40.40;;;30.70;;
57635;SDS011;43465;50.728;4.160;2023-09-12T01:19:03;38.97;;;30.15;;
57635;SDS011;43465;50.728;4.160;2023-09-12T01:29:51;40.78;;;29.02;;
57635;SDS011;43465;50.728;4.160;2023-09-12T01:32:21;41.33;;;31.15;;
57635;SDS011;43465;50.728;4.160;2023-09-12T01:34:46;41.33;;;30.33;;
57635;SDS011;43465;50.728;4.160;2023-09-12T01:37:12;40.55;;;29.95;;
57635;SDS011;43465;50.728;4.160;2023-09-12T01:39:38;43.67;;;27.52;;
57635;SDS011;43465;50.728;4.160;2023-09-12T01:42:04;36.95;;;28.33;;
57635;SDS011;43465;50.728;4.160;2023-09-12T01:44:31;35.90;;;27.95;;
57635;SDS011;43465;50.728;4.160;2023-09-12T01:46:58;32.90;;;27.88;;
57635;SDS011;43465;50.728;4.160;2023-09-12T01:49:28;32.65;;;28.35;;
57635;SDS011;43465;50.728;4.160;2023-09-12T01:51:54;36.13;;;29.20;;
57635;SDS011;43465;50.728;4.160;2023-09-12T01:54:22;35.28;;;26.63;;
57635;SDS011;43465;50.728;4.160;2023-09-12T01:56:48;33.38;;;27.52;;
57635;SDS011;43465;50.728;4.160;2023-09-12T01:59:15;37.40;;;27.35;;
57635;SDS011;43465;50.728;4.160;2023-09-12T02:01:41;30.80;;;25.60;;
57635;SDS011;43465;50.728;4.160;2023-09-12T02:04:08;33.67;;;27.75;;
57635;SDS011;43465;50.728;4.160;2023-09-12T02:06:36;37.58;;;27.42;;
57635;SDS011;43465;50.728;4.160;2023-09-12T02:09:02;35.65;;;27.88;;
57635;SDS011;43465;50.728;4.160;2023-09-12T02:11:28;33.40;;;26.92;;
57635;SDS011;43465;50.728;4.160;2023-09-12T02:13:53;35.38;;;28.13;;
57635;SDS011;43465;50.728;4.160;2023-09-12T02:16:19;39.22;;;29.23;;
57635;SDS011;43465;50.728;4.160;2023-09-12T02:18:45;37.53;;;27.77;;
57635;SDS011;43465;50.728;4.160;2023-09-12T02:21:10;38.13;;;30.13;;
57635;SDS011;43465;50.728;4.160;2023-09-12T02:23:36;38.92;;;30.98;;
57635;SDS011;43465;50.728;4.160;2023-09-12T02:26:02;42.47;;;31.17;;
57635;SDS011;43465;50.728;4.160;2023-09-12T02:28:27;43.47;;;30.92;;
57635;SDS011;43465;50.728;4.160;2023-09-12T02:30:53;37.95;;;29.63;;
57635;SDS011;43465;50.728;4.160;2023-09-12T02:33:19;36.15;;;28.23;;
57635;SDS011;43465;50.728;4.160;2023-09-12T02:35:44;36.75;;;28.00;;
57635;SDS011;43465;50.728;4.160;2023-09-12T02:38:10;38.97;;;29.58;;
57635;SDS011;43465;50.728;4.160;2023-09-12T02:40:35;36.58;;;28.08;;
57635;SDS011;43465;50.728;4.160;2023-09-12T02:43:01;35.80;;;28.00;;
57635;SDS011;43465;50.728;4.160;2023-09-12T02:45:27;33.50;;;27.08;;
57635;SDS011;43465;50.728;4.160;2023-09-12T02:47:52;33.03;;;27.13;;
57635;SDS011;43465;50.728;4.160;2023-09-12T02:50:18;36.60;;;26.83;;
57635;SDS011;43465;50.728;4.160;2023-09-12T02:52:44;36.67;;;27.13;;
57635;SDS011;43465;50.728;4.160;2023-09-12T02:55:09;44.85;;;27.27;;
57635;SDS011;43465;50.728;4.160;2023-09-12T02:57:36;43.80;;;28.13;;
57635;SDS011;43465;50.728;4.160;2023-09-12T03:00:01;38.60;;;28.95;;
57635;SDS011;43465;50.728;4.160;2023-09-12T03:02:27;37.90;;;28.85;;
57635;SDS011;43465;50.728;4.160;2023-09-12T03:04:54;34.15;;;27.10;;
57635;SDS011;43465;50.728;4.160;2023-09-12T03:07:20;39.15;;;27.92;;
57635;SDS011;43465;50.728;4.160;2023-09-12T03:09:47;33.92;;;26.08;;
57635;SDS011;43465;50.728;4.160;2023-09-12T03:12:14;36.20;;;26.70;;
57635;SDS011;43465;50.728;4.160;2023-09-12T03:14:40;36.17;;;26.58;;
57635;SDS011;43465;50.728;4.160;2023-09-12T03:17:06;37.78;;;27.42;;
57635;SDS011;43465;50.728;4.160;2023-09-12T03:19:31;38.08;;;26.67;;
57635;SDS011;43465;50.728;4.160;2023-09-12T03:21:57;36.65;;;27.30;;
57635;SDS011;43465;50.728;4.160;2023-09-12T03:24:23;35.83;;;27.83;;
57635;SDS011;43465;50.728;4.160;2023-09-12T03:26:50;33.08;;;27.25;;
57635;SDS011;43465;50.728;4.160;2023-09-12T03:29:16;32.28;;;26.20;;
57635;SDS011;43465;50.728;4.160;2023-09-12T03:31:42;31.33;;;24.67;;
57635;SDS011;43465;50.728;4.160;2023-09-12T03:34:08;31.92;;;25.15;;
57635;SDS011;43465;50.728;4.160;2023-09-12T03:36:33;32.50;;;24.88;;
57635;SDS011;43465;50.728;4.160;2023-09-12T03:38:59;29.10;;;24.85;;
57635;SDS011;43465;50.728;4.160;2023-09-12T03:41:25;29.38;;;24.58;;
57635;SDS011;43465;50.728;4.160;2023-09-12T03:43:54;32.88;;;26.23;;
57635;SDS011;43465;50.728;4.160;2023-09-12T03:46:20;35.22;;;26.95;;
57635;SDS011;43465;50.728;4.160;2023-09-12T03:48:46;30.02;;;24.40;;
57635;SDS011;43465;50.728;4.160;2023-09-12T03:51:12;29.20;;;25.40;;
57635;SDS011;43465;50.728;4.160;2023-09-12T03:53:38;38.03;;;26.58;;
57635;SDS011;43465;50.728;4.160;2023-09-12T03:56:04;34.65;;;26.50;;
57635;SDS011;43465;50.728;4.160;2023-09-12T03:58:30;33.17;;;27.38;;
57635;SDS011;43465;50.728;4.160;2023-09-12T04:00:55;26.30;;;22.60;;
57635;SDS011;43465;50.728;4.160;2023-09-12T04:03:21;32.60;;;25.65;;
57635;SDS011;43465;50.728;4.160;2023-09-12T04:05:47;30.00;;;24.95;;
57635;SDS011;43465;50.728;4.160;2023-09-12T04:08:13;28.30;;;24.48;;
57635;SDS011;43465;50.728;4.160;2023-09-12T04:10:39;30.90;;;24.63;;
57635;SDS011;43465;50.728;4.160;2023-09-12T04:13:04;31.25;;;25.17;;
57635;SDS011;43465;50.728;4.160;2023-09-12T04:15:30;33.83;;;25.90;;
57635;SDS011;43465;50.728;4.160;2023-09-12T04:17:55;33.97;;;27.10;;
57635;SDS011;43465;50.728;4.160;2023-09-12T04:20:21;32.00;;;25.60;;
57635;SDS011;43465;50.728;4.160;2023-09-12T04:22:46;30.38;;;25.48;;
57635;SDS011;43465;50.728;4.160;2023-09-12T04:25:12;36.33;;;26.77;;
57635;SDS011;43465;50.728;4.160;2023-09-12T04:27:38;28.60;;;24.13;;
57635;SDS011;43465;50.728;4.160;2023-09-12T04:30:03;35.38;;;27.73;;
57635;SDS011;43465;50.728;4.160;2023-09-12T04:32:29;32.60;;;27.20;;
57635;SDS011;43465;50.728;4.160;2023-09-12T04:34:55;32.60;;;26.08;;
57635;SDS011;43465;50.728;4.160;2023-09-12T04:37:21;33.55;;;25.50;;
57635;SDS011;43465;50.728;4.160;2023-09-12T04:39:47;34.72;;;24.33;;
57635;SDS011;43465;50.728;4.160;2023-09-12T04:42:13;32.90;;;26.95;;
57635;SDS011;43465;50.728;4.160;2023-09-12T04:44:39;34.05;;;24.80;;
57635;SDS011;43465;50.728;4.160;2023-09-12T04:47:05;35.92;;;26.15;;
57635;SDS011;43465;50.728;4.160;2023-09-12T04:49:31;36.65;;;26.58;;
57635;SDS011;43465;50.728;4.160;2023-09-12T04:51:57;30.15;;;25.17;;
57635;SDS011;43465;50.728;4.160;2023-09-12T04:54:22;34.95;;;26.45;;
57635;SDS011;43465;50.728;4.160;2023-09-12T04:56:48;32.22;;;25.35;;
57635;SDS011;43465;50.728;4.160;2023-09-12T04:59:14;36.75;;;27.38;;
57635;SDS011;43465;50.728;4.160;2023-09-12T05:01:39;38.20;;;27.45;;
57635;SDS011;43465;50.728;4.160;2023-09-12T05:04:05;38.92;;;28.48;;
57635;SDS011;43465;50.728;4.160;2023-09-12T05:06:31;40.60;;;29.38;;
57635;SDS011;43465;50.728;4.160;2023-09-12T05:08:56;41.90;;;30.48;;
57635;SDS011;43465;50.728;4.160;2023-09-12T05:11:22;51.08;;;35.58;;
57635;SDS011;43465;50.728;4.160;2023-09-12T05:13:49;50.60;;;36.35;;
57635;SDS011;43465;50.728;4.160;2023-09-12T05:16:15;46.75;;;34.78;;
57635;SDS011;43465;50.728;4.160;2023-09-12T05:18:41;59.90;;;34.17;;
57635;SDS011;43465;50.728;4.160;2023-09-12T05:21:06;120.10;;;34.50;;
57635;SDS011;43465;50.728;4.160;2023-09-12T05:23:32;46.95;;;32.67;;
57635;SDS011;43465;50.728;4.160;2023-09-12T05:25:58;189.07;;;35.60;;
57635;SDS011;43465;50.728;4.160;2023-09-12T05:28:24;63.75;;;29.00;;
57635;SDS011;43465;50.728;4.160;2023-09-12T05:30:49;36.55;;;27.08;;
57635;SDS011;43465;50.728;4.160;2023-09-12T05:33:15;36.90;;;28.08;;
57635;SDS011;43465;50.728;4.160;2023-09-12T05:35:41;40.47;;;29.70;;
57635;SDS011;43465;50.728;4.160;2023-09-12T05:38:09;36.45;;;28.73;;
57635;SDS011;43465;50.728;4.160;2023-09-12T05:40:34;35.22;;;27.67;;
57635;SDS011;43465;50.728;4.160;2023-09-12T05:43:00;45.33;;;27.85;;
57635;SDS011;43465;50.728;4.160;2023-09-12T05:45:26;31.58;;;25.50;;
57635;SDS011;43465;50.728;4.160;2023-09-12T05:47:54;31.75;;;24.92;;
57635;SDS011;43465;50.728;4.160;2023-09-12T05:50:20;28.15;;;25.13;;
57635;SDS011;43465;50.728;4.160;2023-09-12T05:52:46;36.08;;;24.48;;
57635;SDS011;43465;50.728;4.160;2023-09-12T05:55:12;127.70;;;29.42;;
57635;SDS011;43465;50.728;4.160;2023-09-12T05:57:37;215.05;;;26.35;;
57635;SDS011;43465;50.728;4.160;2023-09-12T06:00:03;76.25;;;27.08;;
57635;SDS011;43465;50.728;4.160;2023-09-12T06:02:30;136.45;;;25.75;;
57635;SDS011;43465;50.728;4.160;2023-09-12T06:04:58;24.63;;;21.75;;
57635;SDS011;43465;50.728;4.160;2023-09-12T06:07:23;28.40;;;22.25;;
57635;SDS011;43465;50.728;4.160;2023-09-12T06:09:50;23.80;;;21.40;;
57635;SDS011;43465;50.728;4.160;2023-09-12T06:12:16;30.80;;;24.25;;
57635;SDS011;43465;50.728;4.160;2023-09-12T06:14:41;31.83;;;25.70;;
57635;SDS011;43465;50.728;4.160;2023-09-12T06:17:07;34.35;;;25.80;;
57635;SDS011;43465;50.728;4.160;2023-09-12T06:19:32;34.60;;;25.50;;
57635;SDS011;43465;50.728;4.160;2023-09-12T06:21:58;34.15;;;24.27;;
57635;SDS011;43465;50.728;4.160;2023-09-12T06:24:24;34.85;;;27.60;;
57635;SDS011;43465;50.728;4.160;2023-09-12T06:26:49;41.85;;;27.75;;
57635;SDS011;43465;50.728;4.160;2023-09-12T06:29:15;38.42;;;28.10;;
57635;SDS011;43465;50.728;4.160;2023-09-12T06:31:41;35.33;;;26.75;;
57635;SDS011;43465;50.728;4.160;2023-09-12T06:34:07;36.72;;;27.52;;
57635;SDS011;43465;50.728;4.160;2023-09-12T06:36:33;36.35;;;25.73;;
57635;SDS011;43465;50.728;4.160;2023-09-12T06:38:59;35.97;;;26.42;;
57635;SDS011;43465;50.728;4.160;2023-09-12T06:41:26;34.50;;;25.88;;
57635;SDS011;43465;50.728;4.160;2023-09-12T06:43:52;34.58;;;25.27;;
57635;SDS011;43465;50.728;4.160;2023-09-12T06:46:18;31.50;;;24.98;;
57635;SDS011;43465;50.728;4.160;2023-09-12T06:48:44;33.67;;;26.27;;
57635;SDS011;43465;50.728;4.160;2023-09-12T06:51:10;35.10;;;27.92;;
57635;SDS011;43465;50.728;4.160;2023-09-12T06:53:36;34.03;;;26.63;;
57635;SDS011;43465;50.728;4.160;2023-09-12T06:56:05;34.28;;;26.20;;
57635;SDS011;43465;50.728;4.160;2023-09-12T06:58:31;35.35;;;26.50;;
57635;SDS011;43465;50.728;4.160;2023-09-12T07:01:04;34.55;;;26.75;;
57635;SDS011;43465;50.728;4.160;2023-09-12T07:03:31;39.72;;;28.08;;
57635;SDS011;43465;50.728;4.160;2023-09-12T07:05:57;35.50;;;25.45;;
57635;SDS011;43465;50.728;4.160;2023-09-12T07:08:23;37.92;;;27.85;;
57635;SDS011;43465;50.728;4.160;2023-09-12T07:10:49;36.03;;;27.13;;
57635;SDS011;43465;50.728;4.160;2023-09-12T07:13:15;35.03;;;25.63;;
57635;SDS011;43465;50.728;4.160;2023-09-12T07:15:41;30.60;;;24.08;;
57635;SDS011;43465;50.728;4.160;2023-09-12T07:18:06;30.55;;;25.23;;
57635;SDS011;43465;50.728;4.160;2023-09-12T07:20:33;35.13;;;25.25;;
57635;SDS011;43465;50.728;4.160;2023-09-12T07:22:59;36.20;;;26.73;;
57635;SDS011;43465;50.728;4.160;2023-09-12T07:25:25;37.75;;;26.17;;
57635;SDS011;43465;50.728;4.160;2023-09-12T07:27:50;37.10;;;26.17;;
57635;SDS011;43465;50.728;4.160;2023-09-12T07:30:16;33.60;;;25.58;;
57635;SDS011;43465;50.728;4.160;2023-09-12T07:32:42;32.45;;;24.58;;
57635;SDS011;43465;50.728;4.160;2023-09-12T07:35:08;34.95;;;25.92;;
57635;SDS011;43465;50.728;4.160;2023-09-12T07:37:33;34.17;;;25.55;;
57635;SDS011;43465;50.728;4.160;2023-09-12T07:39:59;37.50;;;26.42;;
57635;SDS011;43465;50.728;4.160;2023-09-12T07:42:25;34.65;;;24.95;;
57635;SDS011;43465;50.728;4.160;2023-09-12T07:44:51;33.33;;;24.92;;
57635;SDS011;43465;50.728;4.160;2023-09-12T07:47:17;30.00;;;22.60;;
57635;SDS011;43465;50.728;4.160;2023-09-12T07:49:43;33.03;;;24.98;;
57635;SDS011;43465;50.728;4.160;2023-09-12T07:52:09;32.75;;;24.77;;
57635;SDS011;43465;50.728;4.160;2023-09-12T07:54:34;30.50;;;23.85;;
57635;SDS011;43465;50.728;4.160;2023-09-12T07:57:01;30.50;;;22.75;;
57635;SDS011;43465;50.728;4.160;2023-09-12T07:59:28;32.42;;;22.80;;
57635;SDS011;43465;50.728;4.160;2023-09-12T08:01:53;25.83;;;20.65;;
57635;SDS011;43465;50.728;4.160;2023-09-12T08:04:19;27.85;;;22.15;;
57635;SDS011;43465;50.728;4.160;2023-09-12T08:06:45;26.55;;;21.63;;
57635;SDS011;43465;50.728;4.160;2023-09-12T08:09:11;27.17;;;20.77;;
57635;SDS011;43465;50.728;4.160;2023-09-12T08:11:36;25.02;;;20.70;;
57635;SDS011;43465;50.728;4.160;2023-09-12T08:14:02;28.92;;;21.88;;
57635;SDS011;43465;50.728;4.160;2023-09-12T08:16:28;28.35;;;21.13;;
57635;SDS011;43465;50.728;4.160;2023-09-12T08:18:53;26.08;;;21.00;;
57635;SDS011;43465;50.728;4.160;2023-09-12T08:21:19;27.23;;;21.65;;
57635;SDS011;43465;50.728;4.160;2023-09-12T08:23:45;29.33;;;21.92;;
57635;SDS011;43465;50.728;4.160;2023-09-12T08:26:10;31.15;;;23.58;;
57635;SDS011;43465;50.728;4.160;2023-09-12T08:28:36;26.42;;;19.67;;
57635;SDS011;43465;50.728;4.160;2023-09-12T08:31:01;28.15;;;22.52;;
57635;SDS011;43465;50.728;4.160;2023-09-12T08:33:27;26.45;;;21.02;;
57635;SDS011;43465;50.728;4.160;2023-09-12T08:35:53;28.05;;;20.80;;
57635;SDS011;43465;50.728;4.160;2023-09-12T08:38:19;29.20;;;20.40;;
57635;SDS011;43465;50.728;4.160;2023-09-12T08:40:50;30.75;;;21.90;;
57635;SDS011;43465;50.728;4.160;2023-09-12T08:43:16;30.23;;;21.65;;
57635;SDS011;43465;50.728;4.160;2023-09-12T08:45:42;28.08;;;21.98;;
57635;SDS011;43465;50.728;4.160;2023-09-12T08:48:11;28.48;;;20.20;;
57635;SDS011;43465;50.728;4.160;2023-09-12T08:50:37;28.52;;;22.63;;
57635;SDS011;43465;50.728;4.160;2023-09-12T08:53:03;31.05;;;22.65;;
57635;SDS011;43465;50.728;4.160;2023-09-12T08:55:29;31.90;;;22.50;;
57635;SDS011;43465;50.728;4.160;2023-09-12T08:57:58;35.92;;;25.23;;
57635;SDS011;43465;50.728;4.160;2023-09-12T09:00:25;33.10;;;23.70;;
57635;SDS011;43465;50.728;4.160;2023-09-12T09:02:52;31.48;;;22.95;;
57635;SDS011;43465;50.728;4.160;2023-09-12T09:05:20;29.95;;;22.05;;
57635;SDS011;43465;50.728;4.160;2023-09-12T09:07:47;30.52;;;21.45;;
57635;SDS011;43465;50.728;4.160;2023-09-12T09:10:15;29.35;;;20.90;;
57635;SDS011;43465;50.728;4.160;2023-09-12T09:12:43;30.88;;;22.17;;
57635;SDS011;43465;50.728;4.160;2023-09-12T09:15:26;29.90;;;23.02;;
57635;SDS011;43465;50.728;4.160;2023-09-12T09:17:54;28.65;;;20.98;;
57635;SDS011;43465;50.728;4.160;2023-09-12T09:20:30;32.88;;;23.73;;
57635;SDS011;43465;50.728;4.160;2023-09-12T09:23:03;33.28;;;23.13;;
57635;SDS011;43465;50.728;4.160;2023-09-12T09:25:30;25.08;;;20.38;;
57635;SDS011;43465;50.728;4.160;2023-09-12T09:28:19;27.73;;;20.80;;
57635;SDS011;43465;50.728;4.160;2023-09-12T09:30:46;27.42;;;19.85;;
57635;SDS011;43465;50.728;4.160;2023-09-12T09:33:13;26.17;;;20.80;;
57635;SDS011;43465;50.728;4.160;2023-09-12T09:35:42;26.30;;;19.90;;
57635;SDS011;43465;50.728;4.160;2023-09-12T09:38:10;27.73;;;20.75;;
57635;SDS011;43465;50.728;4.160;2023-09-12T09:40:41;31.73;;;21.98;;
57635;SDS011;43465;50.728;4.160;2023-09-12T09:43:10;28.42;;;21.27;;
57635;SDS011;43465;50.728;4.160;2023-09-12T09:45:45;27.27;;;18.58;;
57635;SDS011;43465;50.728;4.160;2023-09-12T09:48:17;28.42;;;19.15;;
57635;SDS011;43465;50.728;4.160;2023-09-12T09:50:43;27.42;;;19.48;;
57635;SDS011;43465;50.728;4.160;2023-09-12T09:53:09;21.58;;;17.15;;
57635;SDS011;43465;50.728;4.160;2023-09-12T09:55:35;23.58;;;17.50;;
57635;SDS011;43465;50.728;4.160;2023-09-12T09:58:02;21.08;;;16.20;;
57635;SDS011;43465;50.728;4.160;2023-09-12T10:00:30;19.10;;;13.35;;
57635;SDS011;43465;50.728;4.160;2023-09-12T10:02:59;16.65;;;12.65;;
57635;SDS011;43465;50.728;4.160;2023-09-12T10:05:28;17.58;;;14.00;;
57635;SDS011;43465;50.728;4.160;2023-09-12T10:07:57;15.60;;;12.80;;
57635;SDS011;43465;50.728;4.160;2023-09-12T10:10:25;16.02;;;12.45;;
57635;SDS011;43465;50.728;4.160;2023-09-12T10:12:55;19.88;;;14.32;;
57635;SDS011;43465;50.728;4.160;2023-09-12T10:15:22;17.65;;;12.93;;
57635;SDS011;43465;50.728;4.160;2023-09-12T10:17:53;18.55;;;12.55;;
57635;SDS011;43465;50.728;4.160;2023-09-12T10:20:32;17.67;;;11.68;;
57635;SDS011;43465;50.728;4.160;2023-09-12T10:23:19;15.60;;;12.15;;
57635;SDS011;43465;50.728;4.160;2023-09-12T10:26:06;16.20;;;12.55;;
57635;SDS011;43465;50.728;4.160;2023-09-12T10:28:36;15.63;;;11.52;;
57635;SDS011;43465;50.728;4.160;2023-09-12T10:31:07;13.57;;;9.98;;
57635;SDS011;43465;50.728;4.160;2023-09-12T10:33:33;13.07;;;9.80;;
57635;SDS011;43465;50.728;4.160;2023-09-12T10:35:59;11.55;;;9.85;;
57635;SDS011;43465;50.728;4.160;2023-09-12T10:38:32;13.43;;;9.60;;
57635;SDS011;43465;50.728;4.160;2023-09-12T10:41:00;14.95;;;11.02;;
57635;SDS011;43465;50.728;4.160;2023-09-12T10:43:28;11.75;;;9.75;;
57635;SDS011;43465;50.728;4.160;2023-09-12T10:45:54;13.95;;;9.32;;
57635;SDS011;43465;50.728;4.160;2023-09-12T10:48:21;17.48;;;9.30;;
57635;SDS011;43465;50.728;4.160;2023-09-12T10:50:47;12.38;;;9.68;;
57635;SDS011;43465;50.728;4.160;2023-09-12T10:53:14;12.13;;;8.98;;
57635;SDS011;43465;50.728;4.160;2023-09-12T10:55:41;13.90;;;10.65;;
57635;SDS011;43465;50.728;4.160;2023-09-12T10:58:08;12.43;;;7.65;;
57635;SDS011;43465;50.728;4.160;2023-09-12T11:00:35;13.00;;;9.15;;
57635;SDS011;43465;50.728;4.160;2023-09-12T11:05:51;12.27;;;9.63;;
57635;SDS011;43465;50.728;4.160;2023-09-12T11:08:18;13.05;;;8.77;;
57635;SDS011;43465;50.728;4.160;2023-09-12T11:10:44;10.73;;;8.38;;
57635;SDS011;43465;50.728;4.160;2023-09-12T11:13:16;12.65;;;8.02;;
57635;SDS011;43465;50.728;4.160;2023-09-12T11:18:48;9.18;;;8.15;;
57635;SDS011;43465;50.728;4.160;2023-09-12T11:21:40;10.25;;;8.82;;
57635;SDS011;43465;50.728;4.160;2023-09-12T11:24:08;9.07;;;8.07;;
57635;SDS011;43465;50.728;4.160;2023-09-12T11:26:34;12.05;;;8.38;;
57635;SDS011;43465;50.728;4.160;2023-09-12T11:29:12;12.13;;;8.07;;
57635;SDS011;43465;50.728;4.160;2023-09-12T11:31:38;9.88;;;8.68;;
57635;SDS011;43465;50.728;4.160;2023-09-12T11:34:08;12.25;;;9.02;;
57635;SDS011;43465;50.728;4.160;2023-09-12T11:36:40;10.43;;;9.13;;
57635;SDS011;43465;50.728;4.160;2023-09-12T11:39:21;9.98;;;8.35;;
57635;SDS011;43465;50.728;4.160;2023-09-12T11:41:49;12.43;;;8.07;;
57635;SDS011;43465;50.728;4.160;2023-09-12T11:44:16;9.43;;;7.72;;
57635;SDS011;43465;50.728;4.160;2023-09-12T11:46:43;8.82;;;7.80;;
57635;SDS011;43465;50.728;4.160;2023-09-12T11:49:12;13.52;;;7.97;;
57635;SDS011;43465;50.728;4.160;2023-09-12T11:51:46;9.40;;;7.75;;
57635;SDS011;43465;50.728;4.160;2023-09-12T11:54:14;8.85;;;6.63;;
57635;SDS011;43465;50.728;4.160;2023-09-12T11:56:40;8.43;;;6.97;;
57635;SDS011;43465;50.728;4.160;2023-09-12T11:59:06;10.38;;;6.88;;
57635;SDS011;43465;50.728;4.160;2023-09-12T12:01:32;7.65;;;6.50;;
57635;SDS011;43465;50.728;4.160;2023-09-12T12:03:58;9.27;;;6.50;;
57635;SDS011;43465;50.728;4.160;2023-09-12T12:06:24;7.10;;;6.38;;
57635;SDS011;43465;50.728;4.160;2023-09-12T12:08:50;9.57;;;6.18;;
57635;SDS011;43465;50.728;4.160;2023-09-12T12:11:19;6.90;;;5.75;;
57635;SDS011;43465;50.728;4.160;2023-09-12T12:13:45;9.32;;;5.93;;
57635;SDS011;43465;50.728;4.160;2023-09-12T12:16:17;7.72;;;6.68;;
57635;SDS011;43465;50.728;4.160;2023-09-12T12:18:42;12.05;;;6.72;;
57635;SDS011;43465;50.728;4.160;2023-09-12T12:21:08;9.48;;;6.05;;
57635;SDS011;43465;50.728;4.160;2023-09-12T12:23:34;8.52;;;5.50;;
57635;SDS011;43465;50.728;4.160;2023-09-12T12:26:03;7.32;;;5.63;;
57635;SDS011;43465;50.728;4.160;2023-09-12T12:28:35;7.45;;;5.63;;
57635;SDS011;43465;50.728;4.160;2023-09-12T12:31:01;5.85;;;5.25;;
57635;SDS011;43465;50.728;4.160;2023-09-12T12:33:27;8.23;;;5.63;;
57635;SDS011;43465;50.728;4.160;2023-09-12T12:36:02;7.15;;;5.32;;
57635;SDS011;43465;50.728;4.160;2023-09-12T12:38:36;7.82;;;5.07;;
57635;SDS011;43465;50.728;4.160;2023-09-12T12:41:02;8.02;;;5.05;;
57635;SDS011;43465;50.728;4.160;2023-09-12T12:43:28;9.18;;;5.55;;
57635;SDS011;43465;50.728;4.160;2023-09-12T12:45:55;11.60;;;6.38;;
57635;SDS011;43465;50.728;4.160;2023-09-12T12:48:31;7.95;;;6.20;;
57635;SDS011;43465;50.728;4.160;2023-09-12T12:50:58;8.82;;;6.00;;
57635;SDS011;43465;50.728;4.160;2023-09-12T12:53:40;8.70;;;5.45;;
57635;SDS011;43465;50.728;4.160;2023-09-12T12:58:33;10.50;;;5.65;;
57635;SDS011;43465;50.728;4.160;2023-09-12T13:01:00;11.55;;;6.90;;
57635;SDS011;43465;50.728;4.160;2023-09-12T13:03:26;10.40;;;7.10;;
57635;SDS011;43465;50.728;4.160;2023-09-12T13:05:51;10.77;;;7.30;;
57635;SDS011;43465;50.728;4.160;2023-09-12T13:08:17;15.57;;;7.80;;
57635;SDS011;43465;50.728;4.160;2023-09-12T13:10:43;10.10;;;6.20;;
57635;SDS011;43465;50.728;4.160;2023-09-12T13:13:09;10.15;;;6.68;;
57635;SDS011;43465;50.728;4.160;2023-09-12T13:15:35;12.60;;;7.93;;
57635;SDS011;43465;50.728;4.160;2023-09-12T13:18:00;14.82;;;7.25;;
57635;SDS011;43465;50.728;4.160;2023-09-12T13:20:26;9.68;;;6.57;;
57635;SDS011;43465;50.728;4.160;2023-09-12T13:22:52;9.80;;;6.72;;
57635;SDS011;43465;50.728;4.160;2023-09-12T13:25:18;11.75;;;6.57;;
57635;SDS011;43465;50.728;4.160;2023-09-12T13:27:46;11.43;;;7.63;;
57635;SDS011;43465;50.728;4.160;2023-09-12T13:30:11;10.90;;;8.02;;
57635;SDS011;43465;50.728;4.160;2023-09-12T13:32:37;11.80;;;7.10;;
57635;SDS011;43465;50.728;4.160;2023-09-12T13:35:03;10.05;;;6.70;;
57635;SDS011;43465;50.728;4.160;2023-09-12T13:37:29;11.65;;;7.53;;
57635;SDS011;43465;50.728;4.160;2023-09-12T13:39:55;10.45;;;8.88;;
57635;SDS011;43465;50.728;4.160;2023-09-12T13:42:21;12.15;;;9.43;;
57635;SDS011;43465;50.728;4.160;2023-09-12T13:44:47;12.15;;;9.68;;
57635;SDS011;43465;50.728;4.160;2023-09-12T13:47:13;12.82;;;9.95;;
57635;SDS011;43465;50.728;4.160;2023-09-12T13:49:46;12.55;;;10.52;;
57635;SDS011;43465;50.728;4.160;2023-09-12T13:52:11;15.43;;;11.15;;
57635;SDS011;43465;50.728;4.160;2023-09-12T13:54:37;14.30;;;11.43;;
57635;SDS011;43465;50.728;4.160;2023-09-12T13:57:03;12.55;;;9.93;;
57635;SDS011;43465;50.728;4.160;2023-09-12T13:59:28;12.90;;;11.30;;
57635;SDS011;43465;50.728;4.160;2023-09-12T14:01:54;17.60;;;13.90;;
57635;SDS011;43465;50.728;4.160;2023-09-12T14:04:20;13.90;;;12.07;;
57635;SDS011;43465;50.728;4.160;2023-09-12T14:06:45;15.52;;;13.77;;
57635;SDS011;43465;50.728;4.160;2023-09-12T14:09:11;15.68;;;13.32;;
57635;SDS011;43465;50.728;4.160;2023-09-12T14:11:36;15.80;;;13.90;;
57635;SDS011;43465;50.728;4.160;2023-09-12T14:14:03;21.08;;;14.48;;
57635;SDS011;43465;50.728;4.160;2023-09-12T14:16:29;17.42;;;14.52;;
57635;SDS011;43465;50.728;4.160;2023-09-12T14:18:55;20.27;;;15.40;;
57635;SDS011;43465;50.728;4.160;2023-09-12T14:21:21;18.52;;;14.32;;
57635;SDS011;43465;50.728;4.160;2023-09-12T14:23:46;18.48;;;15.95;;
57635;SDS011;43465;50.728;4.160;2023-09-12T14:26:12;22.15;;;16.30;;
57635;SDS011;43465;50.728;4.160;2023-09-12T14:28:38;18.25;;;16.08;;
57635;SDS011;43465;50.728;4.160;2023-09-12T14:31:03;19.63;;;16.80;;
57635;SDS011;43465;50.728;4.160;2023-09-12T14:33:31;17.80;;;15.85;;
57635;SDS011;43465;50.728;4.160;2023-09-12T14:35:57;20.75;;;17.80;;
57635;SDS011;43465;50.728;4.160;2023-09-12T14:38:22;21.02;;;17.80;;
57635;SDS011;43465;50.728;4.160;2023-09-12T14:40:49;21.00;;;18.88;;
57635;SDS011;43465;50.728;4.160;2023-09-12T14:43:17;21.83;;;18.40;;